createdAt,value
2018-10-06T00:00:48.180Z,93.70
2018-10-06T00:03:16.333Z,93.70
2018-10-06T00:05:44.446Z,93.80
2018-10-06T00:08:12.603Z,93.80
2018-10-06T00:10:40.703Z,93.80
2018-10-06T00:13:08.799Z,93.80
2018-10-06T00:15:36.918Z,93.70
2018-10-06T00:18:05.014Z,93.70
2018-10-06T00:20:33.144Z,93.70
2018-10-06T00:23:01.295Z,93.60
2018-10-06T00:25:29.379Z,93.70
2018-10-06T00:27:57.437Z,93.60
2018-10-06T00:30:26.569Z,93.70
2018-10-06T00:32:54.674Z,93.70
2018-10-06T00:35:22.803Z,94.00
2018-10-06T00:37:50.907Z,93.70
2018-10-06T00:40:18.966Z,93.70
2018-10-06T00:42:47.120Z,93.70
2018-10-06T00:45:15.210Z,93.60
2018-10-06T00:47:43.302Z,93.60
2018-10-06T00:50:11.442Z,93.70
2018-10-06T00:52:39.542Z,93.60
2018-10-06T00:55:07.639Z,93.60
2018-10-06T00:57:35.750Z,93.60
2018-10-06T01:00:03.863Z,93.60
2018-10-06T01:02:31.974Z,93.60
2018-10-06T01:05:00.119Z,93.60
2018-10-06T01:07:28.233Z,93.60
2018-10-06T01:09:56.348Z,93.70
2018-10-06T01:12:24.478Z,93.60
2018-10-06T01:14:52.595Z,93.60
2018-10-06T01:17:20.705Z,93.50
2018-10-06T01:19:49.098Z,93.50
2018-10-06T01:22:17.190Z,93.50
2018-10-06T01:24:45.338Z,93.20
2018-10-06T01:27:14.002Z,93.50
2018-10-06T01:29:42.435Z,93.50
2018-10-06T01:32:10.531Z,93.50
2018-10-06T01:34:38.644Z,93.50
2018-10-06T01:37:06.898Z,93.50
2018-10-06T01:39:35.030Z,93.50
2018-10-06T01:42:03.144Z,93.50
2018-10-06T01:44:31.310Z,93.40
2018-10-06T01:46:59.419Z,93.40
2018-10-06T01:49:27.530Z,93.40
2018-10-06T01:51:55.661Z,93.40
2018-10-06T01:54:23.878Z,93.30
2018-10-06T01:56:51.966Z,93.40
2018-10-06T01:59:20.091Z,93.40
2018-10-06T02:01:48.186Z,93.30
2018-10-06T02:04:16.292Z,93.40
2018-10-06T02:06:44.430Z,93.30
2018-10-06T02:09:13.130Z,93.20
2018-10-06T02:11:41.269Z,93.20
2018-10-06T02:14:09.457Z,93.30
2018-10-06T02:16:37.579Z,93.20
2018-10-06T02:19:05.711Z,93.20
2018-10-06T02:21:33.958Z,93.20
2018-10-06T02:24:02.089Z,93.10
2018-10-06T02:26:30.312Z,93.10
2018-10-06T02:28:58.546Z,93.10
2018-10-06T02:31:26.811Z,93.10
2018-10-06T02:33:54.952Z,93.10
2018-10-06T02:36:23.150Z,93.10
2018-10-06T02:38:51.310Z,93.10
2018-10-06T02:41:19.507Z,93.10
2018-10-06T02:43:48.050Z,93.20
2018-10-06T02:46:16.209Z,93.10
2018-10-06T02:48:44.308Z,93.00
2018-10-06T02:51:12.486Z,93.00
2018-10-06T02:53:40.591Z,93.00
2018-10-06T02:56:08.726Z,93.00
2018-10-06T02:58:37.054Z,93.00
2018-10-06T03:01:05.190Z,92.90
2018-10-06T03:03:33.291Z,93.00
2018-10-06T03:06:01.474Z,93.00
2018-10-06T03:08:30.016Z,92.90
2018-10-06T03:10:58.192Z,92.90
2018-10-06T03:13:26.447Z,92.80
2018-10-06T03:15:54.602Z,92.80
2018-10-06T03:18:22.703Z,92.90
2018-10-06T03:20:50.842Z,92.80
2018-10-06T03:23:19.222Z,92.80
2018-10-06T03:25:47.336Z,92.90
2018-10-06T03:28:15.431Z,92.90
2018-10-06T03:30:43.581Z,92.80
2018-10-06T03:33:11.807Z,92.80
2018-10-06T03:35:40.315Z,92.80
2018-10-06T03:38:08.495Z,92.70
2018-10-06T03:40:36.703Z,92.70
2018-10-06T03:43:04.927Z,92.70
2018-10-06T03:45:33.110Z,92.70
2018-10-06T03:48:01.228Z,92.70
2018-10-06T03:50:29.503Z,92.80
2018-10-06T03:52:57.619Z,92.70
2018-10-06T03:55:25.721Z,92.60
2018-10-06T03:57:53.827Z,92.70
2018-10-06T04:00:21.958Z,92.60
2018-10-06T04:02:50.110Z,92.60
2018-10-06T04:05:18.272Z,92.70
2018-10-06T04:07:46.371Z,92.60
2018-10-06T04:10:14.469Z,92.60
2018-10-06T04:12:43.470Z,92.60
2018-10-06T04:15:11.618Z,92.60
2018-10-06T04:17:39.678Z,92.70
2018-10-06T04:20:07.832Z,92.60
2018-10-06T04:22:35.918Z,92.60
2018-10-06T04:25:04.031Z,92.50
2018-10-06T04:27:32.190Z,92.60
2018-10-06T04:30:00.338Z,92.60
2018-10-06T04:32:28.416Z,92.50
2018-10-06T04:34:56.543Z,92.50
2018-10-06T04:37:24.636Z,92.50
2018-10-06T04:39:52.760Z,92.50
2018-10-06T04:42:20.922Z,92.50
2018-10-06T04:44:49.022Z,92.60
2018-10-06T04:47:17.114Z,92.40
2018-10-06T04:49:45.239Z,92.40
2018-10-06T04:52:13.388Z,92.30
2018-10-06T04:54:41.496Z,92.40
2018-10-06T04:57:09.608Z,92.30
2018-10-06T04:59:37.771Z,92.30
2018-10-06T05:02:05.925Z,92.30
2018-10-06T05:04:34.034Z,92.30
2018-10-06T05:07:02.158Z,92.20
2018-10-06T05:09:30.261Z,92.20
2018-10-06T05:11:58.354Z,92.20
2018-10-06T05:14:26.462Z,92.20
2018-10-06T05:16:54.567Z,92.30
2018-10-06T05:19:22.686Z,92.20
2018-10-06T05:21:50.858Z,92.10
2018-10-06T05:24:18.944Z,92.10
2018-10-06T05:26:47.175Z,92.20
2018-10-06T05:29:15.299Z,92.10
2018-10-06T05:31:43.425Z,92.10
2018-10-06T05:34:11.596Z,92.10
2018-10-06T05:36:39.633Z,92.10
2018-10-06T05:39:08.898Z,92.10
2018-10-06T05:41:37.031Z,92.10
2018-10-06T05:44:05.166Z,92.00
2018-10-06T05:46:33.348Z,92.00
2018-10-06T05:49:01.479Z,92.10
2018-10-06T05:51:29.635Z,92.10
2018-10-06T05:53:57.751Z,92.10
2018-10-06T05:56:25.842Z,92.00
2018-10-06T05:58:53.976Z,92.00
2018-10-06T06:01:22.150Z,92.10
2018-10-06T06:03:50.314Z,92.00
2018-10-06T06:06:18.502Z,91.90
2018-10-06T06:08:46.684Z,92.00
2018-10-06T06:11:14.858Z,92.00
2018-10-06T06:13:43.026Z,92.00
2018-10-06T06:16:12.942Z,91.90
2018-10-06T06:18:41.175Z,91.80
2018-10-06T06:21:09.330Z,91.80
2018-10-06T06:23:37.467Z,91.70
2018-10-06T06:26:05.624Z,91.70
2018-10-06T06:28:33.800Z,91.60
2018-10-06T06:31:01.939Z,91.50
2018-10-06T06:33:30.090Z,91.60
2018-10-06T06:35:58.159Z,91.50
2018-10-06T06:38:26.308Z,91.40
2018-10-06T06:40:54.372Z,91.30
2018-10-06T06:43:22.512Z,91.30
2018-10-06T06:45:50.634Z,91.30
2018-10-06T06:48:18.713Z,91.20
2018-10-06T06:50:46.841Z,91.10
2018-10-06T06:53:14.950Z,91.10
2018-10-06T06:55:43.294Z,91.00
2018-10-06T06:58:11.494Z,91.00
2018-10-06T07:00:39.604Z,91.00
2018-10-06T07:03:07.713Z,91.10
2018-10-06T07:05:35.854Z,91.10
2018-10-06T07:08:05.243Z,91.00
2018-10-06T07:10:33.769Z,90.90
2018-10-06T07:15:37.737Z,90.90
2018-10-06T07:21:27.605Z,90.80
2018-10-06T07:27:23.170Z,90.90
2018-10-06T07:29:59.259Z,90.80
2018-10-06T08:00:02.705Z,91.20
2018-10-06T08:02:35.629Z,91.00
2018-10-06T08:07:41.379Z,91.20
2018-10-06T08:10:13.448Z,91.00
2018-10-06T08:12:46.931Z,90.90
2018-10-06T08:15:24.088Z,90.70
2018-10-06T08:17:55.587Z,90.70
2018-10-06T08:20:25.560Z,90.60
2018-10-06T08:23:11.564Z,90.80
2018-10-06T08:26:16.340Z,90.60
2018-10-06T09:06:51.523Z,91.10
2018-10-06T09:09:19.680Z,91.20
2018-10-06T09:11:47.807Z,91.30
2018-10-06T09:14:15.962Z,91.40
2018-10-06T09:16:44.155Z,91.40
2018-10-06T09:19:12.506Z,91.30
2018-10-06T09:21:40.646Z,91.30
2018-10-06T09:24:08.979Z,91.30
2018-10-06T09:26:38.221Z,91.30
2018-10-06T09:29:06.337Z,91.30
2018-10-06T09:31:34.453Z,91.30
2018-10-06T09:34:02.686Z,91.30
2018-10-06T09:36:30.865Z,91.30
2018-10-06T09:38:59.035Z,91.30
2018-10-06T09:41:27.722Z,91.30
2018-10-06T09:43:56.444Z,91.30
2018-10-06T09:46:24.631Z,91.30
2018-10-06T09:48:52.735Z,91.40
2018-10-06T09:51:21.090Z,91.30
2018-10-06T09:53:49.332Z,91.40
2018-10-06T09:56:17.545Z,91.40
2018-10-06T09:58:45.663Z,91.30
2018-10-06T10:01:19.396Z,91.30
2018-10-06T10:03:52.959Z,91.30
2018-10-06T10:06:21.263Z,91.30
2018-10-06T10:08:49.354Z,91.30
2018-10-06T10:11:17.500Z,91.30
2018-10-06T10:13:45.678Z,91.30
2018-10-06T10:16:14.422Z,91.30
2018-10-06T10:18:42.612Z,91.30
2018-10-06T10:21:10.798Z,91.30
2018-10-06T10:23:39.645Z,91.30
2018-10-06T10:26:07.735Z,91.30
2018-10-06T10:28:36.142Z,91.30
2018-10-06T10:31:04.227Z,91.30
2018-10-06T10:33:32.338Z,91.20
2018-10-06T10:36:00.560Z,91.20
2018-10-06T10:38:28.672Z,91.30
2018-10-06T10:40:56.840Z,91.20
2018-10-06T10:43:24.983Z,91.20
2018-10-06T10:45:53.379Z,91.30
2018-10-06T10:48:21.671Z,91.30
2018-10-06T10:50:49.876Z,91.30
2018-10-06T10:53:17.917Z,91.30
2018-10-06T10:55:46.245Z,91.30
2018-10-06T10:58:14.168Z,91.20
2018-10-06T11:00:42.252Z,91.30
2018-10-06T11:03:10.446Z,91.30
2018-10-06T11:05:38.543Z,91.20
2018-10-06T11:08:07.340Z,91.10
2018-10-06T11:10:35.488Z,91.00
2018-10-06T11:13:03.581Z,91.00
2018-10-06T11:15:31.740Z,91.00
2018-10-06T11:17:59.846Z,90.90
2018-10-06T11:20:28.026Z,90.90
2018-10-06T11:22:56.103Z,90.90
2018-10-06T11:25:24.270Z,90.80
2018-10-06T11:27:52.408Z,90.80
2018-10-06T11:30:20.502Z,90.80
2018-10-06T11:32:48.718Z,90.80
2018-10-06T11:35:16.818Z,90.80
2018-10-06T11:37:45.061Z,90.90
2018-10-06T11:40:13.096Z,90.90
2018-10-06T11:42:41.290Z,90.80
2018-10-06T11:45:09.438Z,90.90
2018-10-06T11:47:37.532Z,90.90
2018-10-06T11:50:05.843Z,90.90
2018-10-06T11:52:33.933Z,90.90
2018-10-06T11:55:02.099Z,90.80
2018-10-06T11:57:30.219Z,90.70
2018-10-06T11:59:58.415Z,90.60
2018-10-06T12:02:26.453Z,90.60
2018-10-06T12:04:54.622Z,90.60
2018-10-06T12:07:22.754Z,90.60
2018-10-06T12:09:50.959Z,90.60
2018-10-06T12:12:19.520Z,90.60
2018-10-06T12:14:47.607Z,90.60
2018-10-06T12:17:15.736Z,90.50
2018-10-06T12:19:43.949Z,90.90
2018-10-06T12:22:12.079Z,90.50
2018-10-06T12:24:40.209Z,90.60
2018-10-06T12:27:08.396Z,90.50
2018-10-06T12:29:36.545Z,90.50
2018-10-06T12:32:04.714Z,90.50
2018-10-06T12:34:32.890Z,90.60
2018-10-06T12:37:01.021Z,90.40
2018-10-06T12:39:29.297Z,90.50
2018-10-06T12:41:59.708Z,90.60
2018-10-06T12:44:28.115Z,90.50
2018-10-06T12:46:56.459Z,90.60
2018-10-06T12:49:24.850Z,90.60
2018-10-06T12:51:52.968Z,90.60
2018-10-06T12:54:21.058Z,90.70
2018-10-06T12:56:49.176Z,90.70
2018-10-06T12:59:17.346Z,90.80
2018-10-06T13:01:45.499Z,90.80
2018-10-06T13:04:13.718Z,90.70
2018-10-06T13:06:42.194Z,90.80
2018-10-06T13:09:11.390Z,90.50
2018-10-06T13:11:39.839Z,90.70
2018-10-06T13:14:07.982Z,90.70
2018-10-06T13:16:36.081Z,90.60
2018-10-06T13:19:04.482Z,90.50
2018-10-06T13:21:32.689Z,90.50
2018-10-06T13:24:00.824Z,90.50
2018-10-06T13:26:28.922Z,90.50
2018-10-06T13:28:57.054Z,91.20
2018-10-06T13:31:26.137Z,93.10
2018-10-06T13:33:54.303Z,93.60
2018-10-06T13:36:22.447Z,93.20
2018-10-06T13:38:50.551Z,93.20
2018-10-06T13:41:18.932Z,93.10
2018-10-06T13:43:47.031Z,92.20
2018-10-06T13:46:15.167Z,92.30
2018-10-06T13:49:08.417Z,91.60
2018-10-06T13:51:39.129Z,91.80
2018-10-06T13:54:07.718Z,93.80
2018-10-06T14:00:06.630Z,92.50
2018-10-06T14:02:34.950Z,92.00
2018-10-06T14:05:03.531Z,94.30
2018-10-06T14:07:37.802Z,92.00
2018-10-06T14:10:07.496Z,91.20
2018-10-06T14:12:36.131Z,91.30
2018-10-06T14:15:04.754Z,90.40
2018-10-06T14:20:18.817Z,92.40
2018-10-06T14:22:58.118Z,91.80
2018-10-06T14:25:27.329Z,91.70
2018-10-06T14:27:57.731Z,91.30
2018-10-06T14:30:26.256Z,91.20
2018-10-06T14:40:06.647Z,91.30
2018-10-06T14:46:03.184Z,91.40
2018-10-06T14:48:31.560Z,91.50
2018-10-06T14:50:59.966Z,91.80
2018-10-06T14:53:28.515Z,91.20
2018-10-06T14:55:57.174Z,91.40
2018-10-06T14:58:31.566Z,91.90
2018-10-06T15:01:37.131Z,92.10
2018-10-06T15:04:08.043Z,91.70
2018-10-06T15:06:37.687Z,93.10
2018-10-06T15:09:07.783Z,92.50
2018-10-06T15:11:36.366Z,91.40
2018-10-06T15:14:07.161Z,91.60
2018-10-06T15:16:35.455Z,91.90
2018-10-06T15:19:03.594Z,92.30
2018-10-06T15:21:31.709Z,92.40
2018-10-06T15:23:59.786Z,92.30
2018-10-06T15:26:28.574Z,92.60
2018-10-06T15:28:57.066Z,92.90
2018-10-06T15:31:25.221Z,92.90
2018-10-06T15:33:53.378Z,93.20
2018-10-06T15:36:21.758Z,92.90
2018-10-06T15:38:55.468Z,93.10
2018-10-06T15:41:24.589Z,93.40
2018-10-06T15:43:52.870Z,93.10
2018-10-06T15:46:22.627Z,93.20
2018-10-06T15:48:50.895Z,93.00
2018-10-06T15:51:19.015Z,92.90
2018-10-06T15:53:47.220Z,92.90
2018-10-06T15:56:15.880Z,93.40
2018-10-06T15:58:44.111Z,93.40
2018-10-06T16:01:12.415Z,92.30
2018-10-06T16:03:40.668Z,93.80
2018-10-06T16:06:09.037Z,92.90
2018-10-06T16:08:37.135Z,93.80
2018-10-06T16:11:05.232Z,93.10
2018-10-06T16:13:33.635Z,93.20
2018-10-06T16:16:01.773Z,92.40
2018-10-06T16:18:29.991Z,93.00
2018-10-06T16:20:58.130Z,93.50
2018-10-06T16:23:26.235Z,92.30
2018-10-06T16:25:54.382Z,92.90
2018-10-06T16:28:22.544Z,92.70
2018-10-06T16:30:53.375Z,92.60
2018-10-06T16:33:21.742Z,92.60
2018-10-06T16:36:14.903Z,93.10
2018-10-06T16:38:43.074Z,92.20
2018-10-06T16:41:11.221Z,92.30
2018-10-06T16:43:39.747Z,92.80
2018-10-06T16:46:08.108Z,92.50
2018-10-06T16:48:36.605Z,92.70
2018-10-06T16:51:17.654Z,92.50
2018-10-06T16:53:46.167Z,92.20
2018-10-06T16:56:14.376Z,91.90
2018-10-06T16:58:55.918Z,91.80
2018-10-06T17:01:29.311Z,92.20
2018-10-06T17:03:57.511Z,91.50
2018-10-06T17:06:25.936Z,91.80
2018-10-06T17:08:59.640Z,91.90
2018-10-06T17:11:27.951Z,92.20
2018-10-06T17:13:56.364Z,93.70
2018-10-06T17:16:29.254Z,94.70
2018-10-06T17:19:34.572Z,94.80
2018-10-06T17:22:03.012Z,95.20
2018-10-06T17:24:31.506Z,95.30
2018-10-06T17:27:03.717Z,95.90
2018-10-06T17:29:41.713Z,96.30
2018-10-06T17:39:11.567Z,98.10
2018-10-06T17:41:39.707Z,98.30
2018-10-06T17:44:11.869Z,98.60
2018-10-06T17:53:42.119Z,99.20
2018-10-06T17:56:10.764Z,99.60
2018-10-06T17:58:40.018Z,99.50
2018-10-06T18:01:08.194Z,99.80
2018-10-06T18:03:55.400Z,99.70
2018-10-06T18:06:25.629Z,99.90
2018-10-06T18:29:32.496Z,99.50
2018-10-06T18:32:00.523Z,99.40
2018-10-06T18:34:28.632Z,98.90
2018-10-06T18:36:56.713Z,97.90
2018-10-06T18:39:24.842Z,97.20
2018-10-06T18:41:52.919Z,96.70
2018-10-06T18:44:21.119Z,96.40
2018-10-06T18:46:49.273Z,96.20
2018-10-06T18:49:17.375Z,96.10
2018-10-06T18:51:45.409Z,96.00
2018-10-06T18:54:13.502Z,95.80
2018-10-06T18:56:41.755Z,95.70
2018-10-06T18:59:09.831Z,95.60
2018-10-06T19:01:37.966Z,95.60
2018-10-06T19:04:06.179Z,95.60
2018-10-06T19:06:34.344Z,95.60
2018-10-06T19:09:02.575Z,95.60
2018-10-06T19:11:30.723Z,95.50
2018-10-06T19:13:58.846Z,95.50
2018-10-06T19:16:27.091Z,95.50
2018-10-06T19:18:55.147Z,95.30
2018-10-06T19:21:23.206Z,95.30
2018-10-06T19:23:51.352Z,95.20
2018-10-06T19:26:19.410Z,95.30
2018-10-06T19:28:47.572Z,95.30
2018-10-06T19:31:15.771Z,95.20
2018-10-06T19:33:43.855Z,95.10
2018-10-06T19:36:12.042Z,95.10
2018-10-06T19:38:40.254Z,95.00
2018-10-06T19:41:08.971Z,95.10
2018-10-06T19:43:37.068Z,95.20
2018-10-06T19:46:05.428Z,95.30
2018-10-06T19:48:33.530Z,95.10
2018-10-06T19:51:01.681Z,95.30
2018-10-06T19:53:29.748Z,95.00
2018-10-06T19:55:57.853Z,95.10
2018-10-06T19:58:25.966Z,95.00
2018-10-06T20:00:54.080Z,95.00
2018-10-06T20:03:22.143Z,95.00
2018-10-06T20:05:50.260Z,95.00
2018-10-06T20:08:18.550Z,95.00
2018-10-06T20:10:46.659Z,95.00
2018-10-06T20:13:14.729Z,95.00
2018-10-06T20:15:42.859Z,95.00
2018-10-06T20:18:10.970Z,95.00
2018-10-06T20:20:39.327Z,95.10
2018-10-06T20:23:07.658Z,95.00
2018-10-06T20:25:35.734Z,95.10
2018-10-06T20:28:03.826Z,95.10
2018-10-06T20:30:31.926Z,95.20
2018-10-06T20:33:00.168Z,95.00
2018-10-06T20:35:28.234Z,94.90
2018-10-06T20:37:56.427Z,94.90
2018-10-06T20:40:24.597Z,94.90
2018-10-06T20:42:52.807Z,94.90
2018-10-06T20:45:20.882Z,94.80
2018-10-06T20:47:49.043Z,94.90
2018-10-06T20:50:17.094Z,95.00
2018-10-06T20:52:45.150Z,94.90
2018-10-06T20:55:13.250Z,94.80
2018-10-06T20:57:41.310Z,94.90
2018-10-06T21:00:09.710Z,95.00
2018-10-06T21:02:37.817Z,95.00
2018-10-06T21:05:05.972Z,95.00
2018-10-06T21:07:34.026Z,95.00
2018-10-06T21:10:02.275Z,95.00
2018-10-06T21:12:31.476Z,95.10
2018-10-06T21:14:59.656Z,95.20
2018-10-06T21:17:27.741Z,95.10
2018-10-06T21:19:56.017Z,95.00
2018-10-06T21:22:24.083Z,95.00
2018-10-06T21:24:52.215Z,95.10
2018-10-06T21:27:20.326Z,95.00
2018-10-06T21:29:48.547Z,94.80
2018-10-06T21:32:16.635Z,94.90
2018-10-06T21:34:44.687Z,94.80
2018-10-06T21:37:12.726Z,95.10
2018-10-06T21:39:40.806Z,94.80
2018-10-06T21:42:08.910Z,94.80
2018-10-06T21:44:36.954Z,94.70
2018-10-06T21:47:05.466Z,94.70
2018-10-06T21:49:33.570Z,94.70
2018-10-06T21:52:01.729Z,94.70
2018-10-06T21:54:29.779Z,94.70
2018-10-06T21:56:57.884Z,94.60
2018-10-06T21:59:25.970Z,94.60
2018-10-06T22:01:54.026Z,95.10
2018-10-06T22:04:22.164Z,95.40
2018-10-06T22:06:50.247Z,95.50
2018-10-06T22:09:18.335Z,95.20
2018-10-06T22:11:46.435Z,95.00
2018-10-06T22:14:14.478Z,94.90
2018-10-06T22:16:42.580Z,94.90
2018-10-06T22:19:10.677Z,94.80
2018-10-06T22:21:38.763Z,94.90
2018-10-06T22:24:06.809Z,94.80
2018-10-06T22:26:34.882Z,94.70
2018-10-06T22:29:03.035Z,94.70
2018-10-06T22:31:31.058Z,94.70
2018-10-06T22:33:59.137Z,94.70
2018-10-06T22:36:27.191Z,94.70
2018-10-06T22:38:55.362Z,94.70
2018-10-06T22:41:23.417Z,94.60
2018-10-06T22:43:51.609Z,94.50
2018-10-06T22:46:19.598Z,94.60
2018-10-06T22:48:47.679Z,94.50
2018-10-06T22:51:15.748Z,94.50
2018-10-06T22:53:43.846Z,94.50
2018-10-06T22:56:11.915Z,94.40
2018-10-06T22:58:40.007Z,94.40
2018-10-06T23:01:08.083Z,94.40
2018-10-06T23:03:36.159Z,94.40
2018-10-06T23:06:04.306Z,94.30
2018-10-06T23:08:32.364Z,94.20
2018-10-06T23:11:00.402Z,94.20
2018-10-06T23:13:29.342Z,94.20
2018-10-06T23:15:57.385Z,94.10
2018-10-06T23:18:25.445Z,94.20
2018-10-06T23:20:53.575Z,94.10
2018-10-06T23:23:21.647Z,94.00
2018-10-06T23:25:49.721Z,94.00
2018-10-06T23:28:17.802Z,94.00
2018-10-06T23:30:45.886Z,94.00
2018-10-06T23:33:13.973Z,93.90
2018-10-06T23:35:42.058Z,93.80
2018-10-06T23:38:10.139Z,93.80
2018-10-06T23:40:38.190Z,93.80
2018-10-06T23:43:06.237Z,93.80
2018-10-06T23:45:34.299Z,93.60
2018-10-06T23:48:02.426Z,93.60
2018-10-06T23:50:30.470Z,93.50
2018-10-06T23:52:58.534Z,93.50
2018-10-06T23:55:26.602Z,93.40
2018-10-06T23:57:54.662Z,93.40
